Time;durP1;ratioP1;P1;durP2;ratioP2;P2;SDS_P1;SDS_P2;PMS_P1;PMS_P2;Temp;Humidity;BMP_temperature;BMP_pressure;BME280_temperature;BME280_humidity;BME280_pressure;Samples;Min_cycle;Max_cycle;Signal;HPM_P1;HPM_P2
2023/01/07 00:01:20;;;;;;;14.07;6.05;;;11.60;99.90;;;;;;5072975;28;20103;-40
2023/01/07 00:03:47;;;;;;;10.40;6.32;;;11.60;99.90;;;;;;5072579;28;20027;-34
2023/01/07 00:06:14;;;;;;;6.80;5.55;;;11.60;99.90;;;;;;5072712;28;20021;-36
2023/01/07 00:08:42;;;;;;;10.00;6.75;;;11.60;99.90;;;;;;5072759;28;20468;-37
2023/01/07 00:11:15;;;;;;;10.38;5.85;;;11.70;99.90;;;;;;5073174;28;20028;-37
2023/01/07 00:13:41;;;;;;;13.32;6.45;;;11.60;99.90;;;;;;5073126;28;20016;-39
2023/01/07 00:16:12;;;;;;;7.38;5.00;;;11.60;99.90;;;;;;5072855;28;20512;-37
2023/01/07 00:18:38;;;;;;;11.25;5.57;;;11.60;99.90;;;;;;5063454;28;20167;-41
2023/01/07 00:21:11;;;;;;;11.80;5.32;;;11.60;99.90;;;;;;5064818;28;20075;-39
2023/01/07 00:23:38;;;;;;;8.75;5.68;;;11.60;99.90;;;;;;5067979;28;20488;-36
2023/01/07 00:26:09;;;;;;;12.13;5.78;;;11.60;99.90;;;;;;5072448;28;20500;-38
2023/01/07 00:28:37;;;;;;;12.55;5.30;;;11.60;99.90;;;;;;5070985;28;20045;-36
2023/01/07 00:31:07;;;;;;;;;;;11.60;99.90;;;;;;5071728;28;20036;-38
2023/01/07 00:33:34;;;;;;;7.28;5.28;;;11.60;99.90;;;;;;5070705;28;20383;-37
2023/01/07 00:36:07;;;;;;;7.28;5.03;;;11.50;99.90;;;;;;5070736;28;20065;-38
2023/01/07 00:38:34;;;;;;;8.30;5.18;;;11.40;99.90;;;;;;5068914;28;20033;-37
2023/01/07 00:41:00;;;;;;;7.68;4.80;;;11.50;99.90;;;;;;5070987;28;20028;-40
2023/01/07 00:43:26;;;;;;;9.95;4.70;;;11.50;99.90;;;;;;5070546;28;20240;-41
2023/01/07 00:45:52;;;;;;;8.57;4.80;;;11.50;99.90;;;;;;5073175;28;20028;-37
2023/01/07 00:48:18;;;;;;;7.60;5.43;;;11.40;99.90;;;;;;5072189;28;20137;-43
2023/01/07 00:50:46;;;;;;;7.63;5.32;;;11.40;99.90;;;;;;5073208;28;20025;-38
2023/01/07 00:53:12;;;;;;;6.97;4.82;;;11.50;99.90;;;;;;5074974;28;20082;-39
2023/01/07 00:55:37;;;;;;;7.43;4.75;;;11.50;99.90;;;;;;5074757;28;20024;-38
2023/01/07 00:58:04;;;;;;;7.30;4.95;;;11.50;99.90;;;;;;5075173;28;20508;-40
2023/01/07 01:00:30;;;;;;;11.32;4.75;;;11.40;99.90;;;;;;5070829;28;20495;-40
2023/01/07 01:02:55;;;;;;;8.00;5.03;;;11.40;99.90;;;;;;5070632;28;20028;-40
2023/01/07 01:05:21;;;;;;;5.43;4.63;;;11.40;99.90;;;;;;5074316;28;20024;-35
2023/01/07 01:07:47;;;;;;;6.40;4.20;;;11.40;99.90;;;;;;5073543;28;20021;-37
2023/01/07 01:10:16;;;;;;;7.70;4.57;;;11.30;99.90;;;;;;5074770;28;20491;-36
2023/01/07 01:12:42;;;;;;;10.85;4.57;;;11.40;99.90;;;;;;5073663;28;20484;-37
2023/01/07 01:15:12;;;;;;;7.22;4.43;;;11.40;99.90;;;;;;5074226;28;20028;-40
2023/01/07 01:17:39;;;;;;;6.72;4.43;;;11.40;99.90;;;;;;5068541;28;20962;-36
2023/01/07 01:20:07;;;;;;;6.60;3.90;;;11.40;99.90;;;;;;5059791;28;20040;-39
2023/01/07 01:22:33;;;;;;;6.15;3.83;;;11.40;99.90;;;;;;5060132;28;20017;-37
2023/01/07 01:24:59;;;;;;;7.63;4.68;;;11.30;99.90;;;;;;5075495;28;20500;-33
2023/01/07 01:27:43;;;;;;;4.75;4.22;;;11.30;99.90;;;;;;5072776;28;20591;-40
2023/01/07 01:30:09;;;;;;;7.07;4.13;;;11.40;99.90;;;;;;5063540;28;20055;-37
2023/01/07 01:32:35;;;;;;;6.28;4.40;;;11.30;99.90;;;;;;5067556;28;20021;-36
2023/01/07 01:35:01;;;;;;;8.77;4.05;;;11.30;99.90;;;;;;5066415;28;20043;-38
2023/01/07 01:37:27;;;;;;;7.25;4.47;;;11.30;99.90;;;;;;5063594;28;20039;-34
2023/01/07 01:39:52;;;;;;;4.72;4.20;;;11.40;99.90;;;;;;5066784;28;20392;-38
2023/01/07 01:42:23;;;;;;;7.40;4.22;;;11.30;99.90;;;;;;5068135;28;20029;-35
2023/01/07 01:44:57;;;;;;;7.32;4.65;;;11.30;99.90;;;;;;5066081;28;20650;-36
2023/01/07 01:47:40;;;;;;;5.28;4.57;;;11.30;99.90;;;;;;5065413;28;20055;-42
2023/01/07 01:50:26;;;;;;;8.85;5.20;;;11.30;99.90;;;;;;5065826;28;20559;-42
2023/01/07 01:52:55;;;;;;;9.35;5.15;;;11.30;99.90;;;;;;5065588;28;20025;-43
2023/01/07 01:55:24;;;;;;;6.05;4.28;;;11.30;99.90;;;;;;5064446;28;20426;-42
2023/01/07 01:57:53;;;;;;;10.02;5.20;;;11.30;99.90;;;;;;5067346;28;20072;-43
2023/01/07 02:00:19;;;;;;;5.75;4.35;;;11.20;99.90;;;;;;5065880;28;20032;-45
2023/01/07 02:02:53;;;;;;;4.85;4.38;;;11.30;99.90;;;;;;5066209;28;20039;-42
2023/01/07 02:05:19;;;;;;;7.53;4.60;;;11.20;99.90;;;;;;5065070;28;20033;-41
2023/01/07 02:07:44;;;;;;;8.98;5.20;;;11.30;99.90;;;;;;5066106;28;20032;-35
2023/01/07 02:10:13;;;;;;;7.00;4.80;;;11.30;99.90;;;;;;5065668;28;20392;-40
2023/01/07 02:13:20;;;;;;;6.25;4.80;;;11.30;99.90;;;;;;5068678;28;20491;-44
2023/01/07 02:15:57;;;;;;;10.80;4.78;;;11.30;99.90;;;;;;5055321;28;20068;-45
2023/01/07 02:18:51;;;;;;;9.95;5.05;;;11.30;99.90;;;;;;5065442;28;20028;-39
2023/01/07 02:21:32;;;;;;;10.23;4.63;;;11.20;99.90;;;;;;5065302;28;20450;-41
2023/01/07 02:24:15;;;;;;;12.60;4.30;;;11.20;99.90;;;;;;5063552;28;20023;-37
2023/01/07 02:26:49;;;;;;;10.10;4.55;;;11.20;99.90;;;;;;5067195;28;20020;-42
2023/01/07 02:29:33;;;;;;;8.40;4.70;;;11.20;99.90;;;;;;5063380;28;20534;-39
2023/01/07 02:32:13;;;;;;;7.50;4.90;;;11.10;99.90;;;;;;5071334;28;20021;-43
2023/01/07 02:34:53;;;;;;;13.18;4.80;;;11.10;99.90;;;;;;5070434;28;20029;-57
2023/01/07 02:37:34;;;;;;;9.23;5.35;;;11.00;99.90;;;;;;5071904;28;20074;-41
2023/01/07 02:40:10;;;;;;;8.57;4.70;;;11.00;99.90;;;;;;5072527;28;20559;-39
2023/01/07 02:43:13;;;;;;;14.20;5.18;;;10.90;99.90;;;;;;5070972;28;20049;-38
2023/01/07 02:45:44;;;;;;;7.63;4.88;;;10.90;99.90;;;;;;5071471;28;20086;-36
2023/01/07 02:48:13;;;;;;;10.40;4.80;;;10.80;99.90;;;;;;5074044;28;20369;-37
2023/01/07 02:50:57;;;;;;;6.50;4.65;;;10.80;99.90;;;;;;5073310;28;20052;-36
2023/01/07 02:53:23;;;;;;;9.30;4.95;;;10.90;99.90;;;;;;5053860;28;20033;-41
2023/01/07 02:55:58;;;;;;;10.85;5.30;;;10.80;99.90;;;;;;5053733;28;20040;-39
2023/01/07 02:58:23;;;;;;;8.35;5.13;;;10.80;99.90;;;;;;5061601;28;20036;-43
2023/01/07 03:01:07;;;;;;;8.18;4.82;;;10.80;99.90;;;;;;5064992;28;20082;-43
2023/01/07 03:03:51;;;;;;;8.85;4.43;;;10.80;99.90;;;;;;5073460;28;20480;-43
2023/01/07 03:06:58;;;;;;;23.00;5.47;;;10.70;99.90;;;;;;5058263;28;20086;-44
2023/01/07 03:09:31;;;;;;;;;;;10.80;99.90;;;;;;5073826;28;20025;-46
2023/01/07 03:12:22;;;;;;;8.25;4.13;;;10.80;99.90;;;;;;5072694;28;20428;-42
2023/01/07 03:14:58;;;;;;;7.63;4.57;;;10.80;99.90;;;;;;5062034;28;20049;-46
2023/01/07 03:17:28;;;;;;;8.68;4.57;;;10.80;99.90;;;;;;5069854;28;20491;-41
2023/01/07 03:19:58;;;;;;;10.43;4.55;;;10.70;99.90;;;;;;5070628;28;20016;-41
2023/01/07 03:22:26;;;;;;;9.90;5.50;;;10.70;99.90;;;;;;5068738;28;20025;-43
2023/01/07 03:24:55;;;;;;;12.88;4.32;;;10.70;99.90;;;;;;5070088;28;20087;-45
2023/01/07 03:27:22;;;;;;;13.43;4.47;;;10.60;99.90;;;;;;5072085;28;20511;-43
2023/01/07 03:29:49;;;;;;;16.30;4.70;;;10.60;99.90;;;;;;5071418;28;20393;-45
2023/01/07 03:32:17;;;;;;;11.47;4.13;;;10.60;99.90;;;;;;5071372;28;20025;-43
2023/01/07 03:34:44;;;;;;;14.07;3.92;;;10.70;99.90;;;;;;5070851;28;20528;-36
2023/01/07 03:37:15;;;;;;;8.70;4.97;;;10.60;99.90;;;;;;5072805;28;20031;-35
2023/01/07 03:39:43;;;;;;;10.13;4.40;;;10.60;99.90;;;;;;5073101;28;20028;-33
2023/01/07 03:44:56;;;;;;;9.43;4.22;;;10.60;99.90;;;;;;5072121;28;20147;-41
2023/01/07 03:47:22;;;;;;;10.23;4.07;;;10.60;99.90;;;;;;5072853;28;20054;-45
2023/01/07 03:49:48;;;;;;;11.00;4.15;;;10.60;99.90;;;;;;5072879;28;20503;-45
2023/01/07 03:52:14;;;;;;;10.88;5.00;;;10.60;99.90;;;;;;5072085;28;20573;-43
2023/01/07 03:54:40;;;;;;;14.00;4.45;;;10.50;99.90;;;;;;5072664;28;20029;-38
2023/01/07 03:57:05;;;;;;;7.30;4.00;;;10.50;99.90;;;;;;5070582;28;20025;-46
2023/01/07 03:59:31;;;;;;;9.65;4.38;;;10.50;99.90;;;;;;5072835;28;20024;-45
2023/01/07 04:01:56;;;;;;;12.00;4.47;;;10.50;99.90;;;;;;5069556;28;20530;-40
2023/01/07 04:04:22;;;;;;;9.00;3.78;;;10.50;99.90;;;;;;5071593;28;20418;-43
2023/01/07 04:06:48;;;;;;;8.70;3.60;;;10.40;99.90;;;;;;5071911;28;20445;-44
2023/01/07 04:09:33;;;;;;;10.82;4.22;;;10.40;99.90;;;;;;5072796;28;20028;-42
2023/01/07 04:11:58;;;;;;;10.30;4.50;;;10.40;99.90;;;;;;5069423;28;20036;-42
2023/01/07 04:14:24;;;;;;;9.68;4.65;;;10.30;99.90;;;;;;5071846;28;20082;-43
2023/01/07 04:16:50;;;;;;;6.10;3.78;;;10.40;99.90;;;;;;5071671;28;20032;-42
2023/01/07 04:19:16;;;;;;;8.10;4.45;;;10.40;99.90;;;;;;5071565;28;20032;-40
2023/01/07 04:21:42;;;;;;;8.55;4.43;;;10.40;99.90;;;;;;5076750;28;20531;-44
2023/01/07 04:24:10;;;;;;;12.32;4.85;;;10.40;99.90;;;;;;5076541;28;20107;-34
2023/01/07 04:26:36;;;;;;;10.70;4.45;;;10.40;99.90;;;;;;5073432;28;20028;-35
2023/01/07 04:29:02;;;;;;;8.32;3.85;;;10.40;99.90;;;;;;5076360;28;20048;-39
2023/01/07 04:31:27;;;;;;;11.98;5.50;;;10.40;99.90;;;;;;5074420;28;20086;-37
2023/01/07 04:33:53;;;;;;;8.15;4.43;;;10.40;99.90;;;;;;5076531;28;20496;-37
2023/01/07 04:36:19;;;;;;;14.73;5.50;;;10.40;99.90;;;;;;5075554;28;20473;-39
2023/01/07 04:38:44;;;;;;;10.48;4.25;;;10.40;99.90;;;;;;5074786;28;20051;-38
2023/01/07 04:41:10;;;;;;;12.10;4.72;;;10.40;99.90;;;;;;5073747;28;20028;-42
2023/01/07 04:43:35;;;;;;;6.75;3.90;;;10.40;99.90;;;;;;5076218;28;20032;-41
2023/01/07 04:46:02;;;;;;;7.30;3.92;;;10.40;99.90;;;;;;5075505;28;20029;-44
2023/01/07 04:48:29;;;;;;;8.95;4.32;;;10.50;99.90;;;;;;5071995;28;20029;-43
2023/01/07 04:50:55;;;;;;;8.48;4.25;;;10.50;99.90;;;;;;5076213;28;20480;-45
2023/01/07 04:53:21;;;;;;;6.15;4.13;;;10.50;99.90;;;;;;5076420;28;20191;-42
2023/01/07 04:55:46;;;;;;;7.50;4.45;;;10.50;99.90;;;;;;5073762;28;20033;-42
2023/01/07 04:58:12;;;;;;;6.43;3.67;;;10.50;99.90;;;;;;5074726;28;20055;-44
2023/01/07 05:00:38;;;;;;;5.72;3.92;;;10.60;99.90;;;;;;5073625;28;20035;-44
2023/01/07 05:03:03;;;;;;;5.68;3.22;;;10.60;99.90;;;;;;5075899;28;20522;-46
2023/01/07 05:05:29;;;;;;;6.43;3.88;;;10.60;99.90;;;;;;5074875;28;20044;-41
2023/01/07 05:07:54;;;;;;;8.82;3.92;;;10.60;99.90;;;;;;5075906;28;20021;-43
2023/01/07 05:10:20;;;;;;;7.72;4.05;;;10.60;99.90;;;;;;5074949;28;20538;-44
2023/01/07 05:12:45;;;;;;;5.30;3.63;;;10.60;99.90;;;;;;5075642;28;20021;-41
2023/01/07 05:15:11;;;;;;;5.63;3.45;;;10.70;99.90;;;;;;5074966;28;20552;-42
2023/01/07 05:17:37;;;;;;;7.28;3.92;;;10.70;99.90;;;;;;5075907;28;20024;-42
2023/01/07 05:20:04;;;;;;;11.68;3.95;;;10.70;99.90;;;;;;5074090;28;20029;-41
2023/01/07 05:22:30;;;;;;;8.63;3.58;;;10.70;99.90;;;;;;5075380;28;20033;-41
2023/01/07 05:24:55;;;;;;;8.90;3.58;;;10.70;99.90;;;;;;5071657;28;20029;-42
2023/01/07 05:27:21;;;;;;;9.98;3.58;;;10.70;99.90;;;;;;5075329;28;20047;-42
2023/01/07 05:29:47;;;;;;;4.72;3.17;;;10.70;99.90;;;;;;5071920;28;20508;-43
2023/01/07 05:32:12;;;;;;;5.57;3.45;;;10.70;99.90;;;;;;5055430;28;20033;-42
2023/01/07 05:34:38;;;;;;;5.53;3.13;;;10.70;99.90;;;;;;5062658;28;20024;-42
2023/01/07 05:37:04;;;;;;;9.95;3.40;;;10.70;99.90;;;;;;5074547;28;20478;-43
2023/01/07 05:39:30;;;;;;;4.85;3.25;;;10.70;99.90;;;;;;5074296;28;20082;-43
2023/01/07 05:41:55;;;;;;;6.72;3.10;;;10.70;99.90;;;;;;5075239;28;20040;-44
2023/01/07 05:44:21;;;;;;;7.30;3.38;;;10.70;99.90;;;;;;5072837;28;20025;-42
2023/01/07 05:46:46;;;;;;;6.88;3.55;;;10.70;99.90;;;;;;5074903;28;20370;-44
2023/01/07 05:49:12;;;;;;;4.70;3.30;;;10.70;99.90;;;;;;5074362;28;20021;-41
2023/01/07 05:51:38;;;;;;;5.10;2.85;;;10.70;99.90;;;;;;5074951;28;20047;-41
2023/01/07 05:54:03;;;;;;;5.07;2.67;;;10.70;99.90;;;;;;5073862;28;20028;-39
2023/01/07 05:56:29;;;;;;;7.88;3.03;;;10.70;99.90;;;;;;5074144;28;20028;-46
2023/01/07 05:58:54;;;;;;;4.65;2.92;;;10.60;99.90;;;;;;5074053;28;20103;-46
2023/01/07 06:01:20;;;;;;;5.90;2.70;;;10.60;99.90;;;;;;5072703;28;20086;-52
2023/01/07 06:03:46;;;;;;;6.75;3.30;;;10.60;99.90;;;;;;5071960;28;20032;-48
2023/01/07 06:06:11;;;;;;;5.50;2.85;;;10.60;99.90;;;;;;5071179;28;20520;-48
2023/01/07 06:08:37;;;;;;;7.13;2.58;;;10.50;99.90;;;;;;5074170;28;20031;-51
2023/01/07 06:11:05;;;;;;;4.82;2.60;;;10.50;99.90;;;;;;5072275;28;20487;-38
2023/01/07 06:13:31;;;;;;;10.80;3.15;;;10.50;99.90;;;;;;5073832;28;20021;-44
2023/01/07 06:16:04;;;;;;;5.85;2.70;;;10.50;99.90;;;;;;5073461;28;20086;-41
2023/01/07 06:18:30;;;;;;;7.07;3.75;;;10.50;99.90;;;;;;5073606;28;20105;-42
2023/01/07 06:20:56;;;;;;;3.33;1.98;;;10.50;99.90;;;;;;5071758;28;20126;-41
2023/01/07 06:23:21;;;;;;;5.20;2.60;;;10.60;99.90;;;;;;5072469;28;20537;-44
2023/01/07 06:25:47;;;;;;;6.85;3.08;;;10.60;99.90;;;;;;5072201;28;20396;-41
2023/01/07 06:28:13;;;;;;;9.20;3.40;;;10.60;99.90;;;;;;5072776;28;20040;-44
2023/01/07 06:30:38;;;;;;;3.67;2.65;;;10.60;99.90;;;;;;5071697;28;20032;-44
2023/01/07 06:33:04;;;;;;;4.50;2.25;;;10.60;99.90;;;;;;5072141;28;20028;-44
2023/01/07 06:35:30;;;;;;;8.50;2.70;;;10.60;99.90;;;;;;5072656;28;20028;-42
2023/01/07 06:37:56;;;;;;;4.60;2.33;;;10.60;99.90;;;;;;5068542;28;20044;-42
2023/01/07 06:40:23;;;;;;;6.22;2.20;;;10.60;99.90;;;;;;5071842;28;20108;-44
2023/01/07 06:42:48;;;;;;;3.72;2.28;;;10.50;99.90;;;;;;5072710;28;20037;-40
2023/01/07 06:45:14;;;;;;;5.65;1.98;;;10.50;99.90;;;;;;5067169;28;20032;-41
2023/01/07 06:47:39;;;;;;;3.03;2.15;;;10.50;99.90;;;;;;5071893;28;20541;-45
2023/01/07 06:50:06;;;;;;;5.75;2.03;;;10.40;99.90;;;;;;5072451;28;20028;-41
2023/01/07 06:52:32;;;;;;;4.35;2.00;;;10.40;99.90;;;;;;5072711;28;20060;-41
2023/01/07 06:54:57;;;;;;;4.97;2.47;;;10.30;99.90;;;;;;5073620;28;20028;-39
2023/01/07 06:57:23;;;;;;;6.40;2.33;;;10.30;99.90;;;;;;5072967;28;20055;-41
2023/01/07 06:59:48;;;;;;;3.25;1.85;;;10.40;99.90;;;;;;5072566;28;20071;-46
2023/01/07 07:02:20;;;;;;;6.68;1.90;;;10.30;99.90;;;;;;5073009;28;20056;-41
2023/01/07 07:04:46;;;;;;;4.55;1.67;;;10.30;99.90;;;;;;5073462;28;20033;-41
2023/01/07 07:07:11;;;;;;;5.30;2.20;;;10.30;99.90;;;;;;5072620;28;20158;-42
2023/01/07 07:09:37;;;;;;;3.65;1.70;;;10.30;99.90;;;;;;5072894;28;20024;-43
2023/01/07 07:12:03;;;;;;;2.63;2.03;;;10.30;99.90;;;;;;5067208;28;20036;-43
2023/01/07 07:14:28;;;;;;;4.03;1.83;;;10.30;99.90;;;;;;5073505;28;20036;-42
2023/01/07 07:16:54;;;;;;;2.05;1.60;;;10.30;99.90;;;;;;5072445;28;20028;-44
2023/01/07 07:19:20;;;;;;;2.20;1.40;;;10.30;99.90;;;;;;5073108;28;20419;-41
2023/01/07 07:21:46;;;;;;;5.45;1.58;;;10.30;99.90;;;;;;5072394;28;20029;-43
2023/01/07 07:24:12;;;;;;;6.60;1.60;;;10.30;99.90;;;;;;5071295;28;20032;-44
2023/01/07 07:26:37;;;;;;;1.38;1.27;;;10.40;99.90;;;;;;5071726;28;20438;-50
2023/01/07 07:29:03;;;;;;;4.88;1.67;;;10.50;99.90;;;;;;5072963;28;20124;-41
2023/01/07 07:31:28;;;;;;;7.10;1.63;;;10.50;99.90;;;;;;5072534;28;20020;-37
2023/01/07 07:33:54;;;;;;;2.78;1.50;;;10.60;99.90;;;;;;5073136;28;20029;-42
2023/01/07 07:36:20;;;;;;;2.80;1.40;;;10.50;99.90;;;;;;5073223;28;20460;-36
2023/01/07 07:38:45;;;;;;;2.72;1.50;;;10.60;99.90;;;;;;5071115;28;20021;-38
2023/01/07 07:41:11;;;;;;;3.15;1.20;;;10.50;99.90;;;;;;5072113;28;20028;-39
2023/01/07 07:43:36;;;;;;;3.10;1.63;;;10.60;99.90;;;;;;5072843;28;20033;-41
2023/01/07 07:46:03;;;;;;;2.15;1.05;;;10.70;99.90;;;;;;5072222;28;20103;-34
2023/01/07 07:48:28;;;;;;;1.35;0.95;;;10.80;99.90;;;;;;5068038;28;20521;-37
2023/01/07 07:50:54;;;;;;;3.53;1.10;;;10.80;99.90;;;;;;5072938;28;20099;-44
2023/01/07 07:53:20;;;;;;;3.50;1.05;;;10.80;99.90;;;;;;5069117;28;20060;-41
2023/01/07 07:55:46;;;;;;;1.35;0.80;;;10.80;99.90;;;;;;5071288;28;20021;-43
2023/01/07 07:58:12;;;;;;;3.28;1.23;;;10.70;99.90;;;;;;5069999;28;20500;-42
2023/01/07 08:00:56;;;;;;;1.88;1.20;;;10.80;99.90;;;;;;5069322;28;20025;-42
2023/01/07 08:03:22;;;;;;;3.10;0.85;;;10.80;99.90;;;;;;5069330;28;20036;-41
2023/01/07 08:05:48;;;;;;;1.55;1.10;;;10.80;99.90;;;;;;5071936;28;20008;-43
2023/01/07 08:08:14;;;;;;;3.13;1.17;;;10.80;99.90;;;;;;5070839;28;20033;-42
2023/01/07 08:10:40;;;;;;;5.68;0.95;;;10.80;99.90;;;;;;5072720;28;20551;-44
2023/01/07 08:13:06;;;;;;;4.30;1.20;;;10.80;99.90;;;;;;5070985;28;20080;-41
2023/01/07 08:15:31;;;;;;;1.50;0.80;;;10.80;99.90;;;;;;5072755;28;20044;-41
2023/01/07 08:18:03;;;;;;;1.10;0.90;;;10.80;99.90;;;;;;5070063;28;20043;-42
2023/01/07 08:20:29;;;;;;;1.15;0.88;;;10.80;99.90;;;;;;5072722;28;20035;-48
2023/01/07 08:22:59;;;;;;;1.90;1.10;;;10.90;99.90;;;;;;5071416;28;20418;-42
2023/01/07 08:25:26;;;;;;;2.08;1.10;;;10.90;99.90;;;;;;5072633;28;20154;-42
2023/01/07 08:27:54;;;;;;;3.10;0.70;;;10.90;99.90;;;;;;5070684;28;20095;-42
2023/01/07 08:30:20;;;;;;;1.60;1.17;;;10.90;99.90;;;;;;5072365;28;20028;-33
2023/01/07 08:32:46;;;;;;;4.03;1.00;;;10.90;99.90;;;;;;5071475;28;20032;-36
2023/01/07 08:35:11;;;;;;;5.32;1.05;;;10.90;99.90;;;;;;5072717;28;20024;-39
2023/01/07 08:37:37;;;;;;;1.88;1.05;;;10.90;99.90;;;;;;5067360;28;20480;-39
2023/01/07 08:40:04;;;;;;;3.80;0.85;;;11.00;99.90;;;;;;5071619;28;20025;-35
2023/01/07 08:42:30;;;;;;;1.50;1.20;;;11.10;99.90;;;;;;5071049;28;20021;-37
2023/01/07 08:44:55;;;;;;;2.20;1.17;;;11.00;99.90;;;;;;5071744;28;20036;-39
2023/01/07 08:47:21;;;;;;;0.77;0.75;;;11.10;99.90;;;;;;5071254;28;20019;-40
2023/01/07 08:49:47;;;;;;;2.15;0.95;;;11.10;99.90;;;;;;5067527;28;20029;-37
2023/01/07 08:52:12;;;;;;;1.52;0.85;;;11.00;99.90;;;;;;5072364;28;20017;-40
2023/01/07 08:54:39;;;;;;;0.60;0.60;;;11.00;99.90;;;;;;5072225;28;20031;-35
2023/01/07 08:57:04;;;;;;;2.63;1.33;;;11.00;99.90;;;;;;5071464;28;20090;-42
2023/01/07 08:59:30;;;;;;;1.50;0.70;;;11.00;99.90;;;;;;5071358;28;20484;-43
2023/01/07 09:01:56;;;;;;;0.57;0.55;;;11.00;99.90;;;;;;5071455;28;20036;-46
2023/01/07 09:04:22;;;;;;;2.90;0.63;;;11.10;99.90;;;;;;5070697;28;20036;-42
2023/01/07 09:06:47;;;;;;;0.70;0.70;;;11.10;99.90;;;;;;5073138;28;20037;-42
2023/01/07 09:09:15;;;;;;;0.70;0.70;;;11.10;99.90;;;;;;5075825;28;20027;-49
2023/01/07 09:11:41;;;;;;;1.25;0.77;;;11.10;99.90;;;;;;5076074;28;20020;-44
2023/01/07 09:14:07;;;;;;;0.93;0.82;;;11.10;99.90;;;;;;5073668;28;20087;-37
2023/01/07 09:16:32;;;;;;;2.65;0.65;;;11.00;99.90;;;;;;5074575;28;20093;-40
2023/01/07 09:19:01;;;;;;;0.70;0.52;;;11.00;99.90;;;;;;5072238;28;20531;-44
2023/01/07 09:21:27;;;;;;;0.80;0.80;;;11.10;99.90;;;;;;5074738;28;20033;-44
2023/01/07 09:23:52;;;;;;;2.78;1.10;;;11.20;99.90;;;;;;5072530;28;20043;-44
2023/01/07 09:26:18;;;;;;;0.98;0.80;;;11.20;99.90;;;;;;5067860;28;20028;-40
2023/01/07 09:28:43;;;;;;;0.80;0.80;;;11.20;99.90;;;;;;5069953;28;20045;-42
2023/01/07 09:31:09;;;;;;;3.50;0.60;;;11.10;99.90;;;;;;5072557;28;20490;-44
2023/01/07 09:33:34;;;;;;;0.88;0.70;;;11.20;99.90;;;;;;5068686;28;20029;-38
2023/01/07 09:36:00;;;;;;;1.35;0.47;;;11.20;99.90;;;;;;5089250;28;20389;-39
2023/01/07 09:38:26;;;;;;;2.08;0.98;;;11.20;99.90;;;;;;5072481;28;20028;-37
2023/01/07 09:40:52;;;;;;;0.52;0.52;;;11.20;99.90;;;;;;5073913;28;20484;-35
2023/01/07 09:43:29;;;;;;;2.35;0.82;;;11.30;99.90;;;;;;5065211;28;20021;-37
2023/01/07 09:45:59;;;;;;;0.65;0.50;;;11.30;99.90;;;;;;5069399;28;20056;-41
2023/01/07 09:48:34;;;;;;;1.02;0.60;;;11.30;99.90;;;;;;5070919;28;20028;-37
2023/01/07 09:51:05;;;;;;;0.50;0.50;;;11.30;99.90;;;;;;5066809;28;20094;-38
2023/01/07 09:53:39;;;;;;;1.65;1.02;;;11.30;99.90;;;;;;5067918;28;20032;-38
2023/01/07 09:56:27;;;;;;;1.65;0.73;;;11.40;99.90;;;;;;5057508;28;20492;-42
2023/01/07 09:58:54;;;;;;;1.25;0.70;;;11.40;99.90;;;;;;5059589;28;20082;-37
2023/01/07 10:01:43;;;;;;;0.38;0.25;;;11.50;99.90;;;;;;5074773;28;20499;-35
2023/01/07 10:04:12;;;;;;;1.55;0.88;;;11.50;99.90;;;;;;5068564;28;20074;-37
2023/01/07 10:06:44;;;;;;;0.80;0.68;;;11.60;99.90;;;;;;5067403;28;20025;-37
2023/01/07 10:09:47;;;;;;;0.68;0.55;;;11.70;99.90;;;;;;5068494;28;20473;-36
2023/01/07 10:12:19;;;;;;;0.70;0.70;;;11.60;99.90;;;;;;5071295;28;20504;-37
2023/01/07 10:15:10;;;;;;;0.95;0.60;;;11.70;99.90;;;;;;5067018;28;20548;-36
2023/01/07 10:18:07;;;;;;;1.88;0.73;;;11.70;99.90;;;;;;5073301;28;20472;-37
2023/01/07 10:20:55;;;;;;;3.22;0.65;;;11.70;99.90;;;;;;5072237;28;20031;-36
2023/01/07 10:23:27;;;;;;;1.10;0.82;;;11.70;99.90;;;;;;5063028;28;20099;-45
2023/01/07 10:25:58;;;;;;;0.60;0.60;;;11.70;99.90;;;;;;5071465;28;20036;-41
2023/01/07 10:28:47;;;;;;;0.45;0.45;;;11.90;99.90;;;;;;5058213;28;20036;-44
2023/01/07 10:31:23;;;;;;;1.25;0.60;;;11.90;99.90;;;;;;5062400;28;20028;-39
2023/01/07 10:33:50;;;;;;;0.50;0.50;;;12.00;99.90;;;;;;5065392;28;20047;-40
2023/01/07 10:36:21;;;;;;;0.60;0.47;;;12.00;99.90;;;;;;5072385;28;20769;-39
2023/01/07 10:38:59;;;;;;;1.42;0.70;;;12.00;99.90;;;;;;5069080;28;20503;-44
2023/01/07 10:41:28;;;;;;;;;;;12.00;99.90;;;;;;5072782;28;20064;-35
2023/01/07 10:44:39;;;;;;;4.10;0.63;;;11.90;99.90;;;;;;5073985;28;19908;-39
2023/01/07 10:47:29;;;;;;;0.93;0.77;;;11.80;99.90;;;;;;5062042;28;20557;-38
2023/01/07 10:50:25;;;;;;;0.70;0.70;;;11.80;99.90;;;;;;5074077;28;20500;-37
2023/01/07 10:52:53;;;;;;;2.05;0.68;;;11.80;99.90;;;;;;5073664;28;20481;-36
2023/01/07 10:55:47;;;;;;;1.15;0.90;;;11.90;99.90;;;;;;5066856;28;20025;-37
2023/01/07 10:58:13;;;;;;;1.55;1.23;;;12.00;99.90;;;;;;5065445;28;20504;-39
2023/01/07 11:00:39;;;;;;;0.60;0.60;;;12.00;99.90;;;;;;5069613;28;20020;-39
2023/01/07 11:03:22;;;;;;;1.38;0.80;;;12.00;99.90;;;;;;5085389;28;20044;-39
2023/01/07 11:05:55;;;;;;;2.03;0.70;;;12.00;99.90;;;;;;5073750;28;20377;-36
2023/01/07 11:08:41;;;;;;;1.88;0.75;;;12.00;99.90;;;;;;5073178;28;20388;-36
2023/01/07 11:11:17;;;;;;;1.08;0.88;;;12.10;99.90;;;;;;5071754;28;20495;-40
2023/01/07 11:13:49;;;;;;;0.60;0.60;;;12.20;99.90;;;;;;5072261;28;20115;-37
2023/01/07 11:16:22;;;;;;;1.88;0.80;;;12.20;99.90;;;;;;5071276;28;20032;-40
2023/01/07 11:18:57;;;;;;;3.47;0.60;;;12.20;99.90;;;;;;5070067;28;20404;-37
2023/01/07 11:21:32;;;;;;;1.40;0.60;;;12.20;99.90;;;;;;5073483;28;20468;-39
2023/01/07 11:23:57;;;;;;;0.60;0.60;;;12.20;99.90;;;;;;5071551;28;20028;-36
2023/01/07 11:26:29;;;;;;;3.28;0.70;;;12.20;99.90;;;;;;5072188;28;20515;-37
2023/01/07 11:28:59;;;;;;;0.60;0.60;;;12.30;99.90;;;;;;5072585;28;20566;-36
2023/01/07 11:31:47;;;;;;;1.65;0.63;;;12.30;99.90;;;;;;5070553;28;20477;-35
2023/01/07 11:34:25;;;;;;;4.63;0.77;;;12.40;99.90;;;;;;5069164;28;20380;-35
2023/01/07 11:36:51;;;;;;;3.05;0.47;;;12.40;99.90;;;;;;5068658;28;20039;-44
2023/01/07 11:39:22;;;;;;;0.50;0.50;;;12.30;99.90;;;;;;5071386;28;20016;-44
2023/01/07 11:42:37;;;;;;;0.43;0.40;;;12.30;99.90;;;;;;5069968;28;20508;-42
2023/01/07 11:44:45;;;;;;;0.60;0.60;;;12.20;99.90;;;;;;5059068;28;20554;-39
2023/01/07 11:47:15;;;;;;;0.93;0.57;;;12.20;99.90;;;;;;5071671;28;20028;-42
2023/01/07 11:49:44;;;;;;;6.82;0.63;;;12.20;99.90;;;;;;5055933;28;20495;-44
2023/01/07 11:52:19;;;;;;;2.70;0.75;;;12.20;99.90;;;;;;5069471;28;20104;-37
2023/01/07 11:54:51;;;;;;;0.63;0.63;;;12.20;99.90;;;;;;5065364;28;20492;-43
2023/01/07 11:57:24;;;;;;;0.50;0.50;;;12.30;99.90;;;;;;5067841;28;20484;-47
2023/01/07 12:00:27;;;;;;;0.65;0.63;;;12.40;99.90;;;;;;5072812;28;20472;-45
2023/01/07 12:03:09;;;;;;;0.63;0.63;;;12.30;99.90;;;;;;4985872;28;20554;-47
2023/01/07 12:05:35;;;;;;;0.50;0.50;;;12.40;99.90;;;;;;5063476;28;20037;-43
2023/01/07 12:08:01;;;;;;;6.75;0.73;;;12.50;99.90;;;;;;5073092;28;20074;-43
2023/01/07 12:10:28;;;;;;;1.35;0.65;;;12.40;99.90;;;;;;5071880;28;20009;-43
2023/01/07 12:12:54;;;;;;;0.95;0.50;;;12.40;99.90;;;;;;5070127;28;20029;-43
2023/01/07 12:15:28;;;;;;;3.22;0.60;;;12.40;99.90;;;;;;5069592;28;20028;-44
2023/01/07 12:18:02;;;;;;;0.60;0.60;;;12.40;99.90;;;;;;5070639;28;20043;-44
2023/01/07 12:21:03;;;;;;;0.50;0.50;;;12.30;99.90;;;;;;5067365;28;20032;-45
2023/01/07 12:23:53;;;;;;;0.80;0.50;;;12.30;99.90;;;;;;5071169;28;20032;-47
2023/01/07 12:26:19;;;;;;;0.80;0.80;;;12.20;99.90;;;;;;5071493;28;20020;-45
2023/01/07 12:29:06;;;;;;;2.00;0.85;;;12.20;99.90;;;;;;5072153;28;20400;-46
2023/01/07 12:31:34;;;;;;;1.55;0.90;;;12.20;99.90;;;;;;5071679;28;20047;-47
2023/01/07 12:34:04;;;;;;;0.47;0.40;;;12.20;99.90;;;;;;5067971;28;20087;-46
2023/01/07 12:36:44;;;;;;;1.33;0.75;;;12.10;99.90;;;;;;5070898;28;20031;-51
2023/01/07 12:39:24;;;;;;;0.50;0.50;;;12.10;99.90;;;;;;5067985;28;20043;-44
2023/01/07 12:42:02;;;;;;;0.90;0.60;;;12.10;99.90;;;;;;5075419;28;20033;-47
2023/01/07 12:44:28;;;;;;;1.52;0.63;;;12.20;99.90;;;;;;5072852;28;20116;-48
2023/01/07 12:47:08;;;;;;;1.55;0.85;;;12.20;99.90;;;;;;5072429;28;20583;-48
2023/01/07 12:49:56;;;;;;;3.03;1.10;;;12.20;99.90;;;;;;5067527;28;20031;-44
2023/01/07 12:52:40;;;;;;;1.20;0.60;;;12.20;99.90;;;;;;5072917;28;20411;-52
2023/01/07 12:55:22;;;;;;;1.33;0.95;;;12.30;99.90;;;;;;5076394;28;20036;-42
2023/01/07 12:57:59;;;;;;;3.05;0.90;;;12.20;99.90;;;;;;5072548;28;20556;-46
2023/01/07 13:00:30;;;;;;;1.92;0.77;;;12.20;99.90;;;;;;5072936;28;20378;-44
2023/01/07 13:03:22;;;;;;;0.93;0.57;;;12.30;99.90;;;;;;5071066;28;20542;-45
2023/01/07 13:05:53;;;;;;;2.58;0.82;;;12.30;99.90;;;;;;5073345;28;20029;-46